Sweetser, Indiana
Current Conditions -  °F | °C
As of 4:35 AM on Monday 22 Dec 2014 (Local Time) from KMZZ Reporting Station
Clear Clear  
Wind Chill: 21°   Ceiling: Unl
Heat Index: 28°   Visibility: 7mi
Dew Point: 25°   Wind: 7mph
Humidity: 88%   Direction: 120°ESE
Pressure: 30.02"   Gusts: NA
Location:  40.57°N, 85.77°W
Report Text: KMZZ 220935Z AUTO 12006KT 7SM CLR M02/M04 A3002 RMK AO2 T10231041
Loading
Personal Weather Stations






























Interactive Weather Map New forecast layout! Learn more

10-Day Weather Forecast

Advertisements
Track Severe Weather on mobile